Thedford, NE (69166)

2:54 PM CDT on July 23, 2014 (GMT -0500)
Thedford (KTIF) Elev 2927 ft | 41.96 °N, 100.57 °W | Change Station

Current weather conditions updated 19 minutes ago

Clear
Clear
82 °F
Feels Like 82 °F
N
8
Wind Variable Wind from ESE
Gusts 21 mph

Today is forecast to be Cooler than yesterday.

Today
High -- | Low -- °F
--% Chance of Precip.
Yesterday
High -- | Low -- °F
Precip. -- in
6:27 AM 9:09 PM
Waning Crescent, 9% visible
Pressure 30.26 in
Visibility 10.0 miles
Clouds Clear
Heat Index 82 °F
Dew Point 61 °F
Humidity 50%
Rainfall 0.00 in
Snow Depth Not available.
UV 11 out of 12
Pollen 6.60 out of 12
Air Quality Not available.
Flu Activity Not available.
METAR KTIF 231935Z 12007G18KT 10SM CLR 28/16 A3026 RMK AO2 T02750162 PWINO

More Conditions Fewer Conditions

Pressure 30.26 in
Visibility 10.0 miles
Clouds Clear
Heat Index 82 °F
Dew Point 61 °F
Humidity 50%
Rainfall 0.00 in
Snow Depth Not available.
UV 11 out of 12
Pollen 6.60 out of 12
Air Quality Not available.
Flu Activity Not available.
METAR KTIF 231935Z 12007G18KT 10SM CLR 28/16 A3026 RMK AO2 T02750162 PWINO

More Conditions Fewer Conditions

10-Day Weather Forecast

Almanac

Astronomy

Jul. 23, 2014 Rise Set
Actual Time 6:27 AM CDT 9:09 PM CDT
Civil Twilight 5:54 AM CDT 9:42 PM CDT
Nautical Twilight 5:13 AM CDT 10:22 PM CDT
Astronomical Twilight 4:27 AM CDT 11:09 PM CDT
Moon 3:47 AM CDT 6:39 PM CDT
Length of Visible Light 15h 47m
Length of Day
14h 42m
Tomorrow will be 1m 50s shorter.
Waning Crescent, 9% of the Moon is Illuminated
Today
Waning Crescent
Jul 26
New
Aug 3
First Quarter
Aug 10
Full
Aug 17
Last Quarter

Today's Extremes

State Highs State Lows

Community

WunderPhotos

Upload Photos

1,736,734 photos uploaded!

Nearby

Snow Depth

Station Depth Elevation
No new snow has been reported.

Earthquake Activity

City Distance Mag. Time & Date
No recent earthquake activity has been reported nearby.
Minimum magnitude displayed is 2.5.

Coastal Water Temperatures

Place Temperature
No Stations Reporting

Nearby Weather Stations

Station Location Temp. Heat Index Dew Point Humidity Wind Precip. Elev Updated Type
RAWS BESSEY NE, Halsey, NE 77 °F 79 °F 59 °F 53% SE  at  11 mph 0.00 in / hr 2873 ft 1:23 PM CDT MADIS

Show More Stations Show Fewer Stations